Time;durP1;ratioP1;P1;durP2;ratioP2;P2;SDS_P1;SDS_P2;PMS_P1;PMS_P2;Temp;Humidity;BMP_temperature;BMP_pressure;BME280_temperature;BME280_humidity;BME280_pressure;Samples;Min_cycle;Max_cycle;Signal;HPM_P1;HPM_P2
2021/06/24 09:27:36;;;;;;;21.60;5.43;;;18.40;99.90;;;;;;15020180;22;1362542;-54
2021/06/24 09:33:23;;;;;;;10.75;5.20;;;18.70;99.90;;;;;;14989341;22;20093;-54
2021/06/24 09:46:06;;;;;;;16.08;4.95;;;19.00;99.90;;;;;;15020325;22;20011;-52
2021/06/24 09:51:54;;;;;;;14.25;4.65;;;19.10;99.90;;;;;;15019900;22;20023;-51
2021/06/24 09:57:51;;;;;;;12.57;4.55;;;19.60;99.90;;;;;;15022000;22;20094;-53
2021/06/24 10:03:43;;;;;;;20.27;5.95;;;19.60;99.90;;;;;;15009724;22;20019;-51
2021/06/24 10:09:32;;;;;;;11.68;4.70;;;19.80;99.90;;;;;;15004483;22;20039;-54
2021/06/24 10:15:19;;;;;;;17.95;4.95;;;19.70;99.90;;;;;;15007364;22;20043;-53
2021/06/24 10:21:08;;;;;;;15.60;5.22;;;19.70;99.90;;;;;;15003835;22;20081;-55
2021/06/24 10:26:59;;;;;;;16.73;5.50;;;19.90;99.90;;;;;;14989025;22;20051;-54
2021/06/24 10:32:59;;;;;;;17.70;5.45;;;19.70;99.90;;;;;;14974225;22;20047;-51
2021/06/24 10:38:53;;;;;;;15.10;5.55;;;19.60;99.90;;;;;;14973658;22;20484;-54
2021/06/24 10:44:48;;;;;;;18.92;4.70;;;19.70;99.90;;;;;;14955749;22;20031;-53
2021/06/24 10:50:40;;;;;;;11.02;4.68;;;20.00;99.90;;;;;;14973020;22;20038;-53
2021/06/24 10:56:43;;;;;;;19.30;5.47;;;20.40;99.90;;;;;;14982185;22;20031;-51
2021/06/24 11:08:32;;;;;;;9.50;5.05;;;20.50;99.90;;;;;;14985135;22;20025;-55
2021/06/24 11:14:55;;;;;;;10.45;4.43;;;20.50;99.90;;;;;;15003736;22;20507;-55
2021/06/24 11:20:43;;;;;;;10.00;5.18;;;20.60;99.90;;;;;;15003207;22;20484;-55
2021/06/24 11:26:32;;;;;;;9.98;3.67;;;20.80;99.90;;;;;;14991707;22;20466;-56
2021/06/24 11:32:22;;;;;;;8.55;4.13;;;20.90;99.90;;;;;;14974004;22;20369;-55
2021/06/24 11:38:09;;;;;;;13.30;4.93;;;21.20;99.90;;;;;;14971579;22;20580;-54
2021/06/24 11:43:59;;;;;;;9.93;4.25;;;21.20;99.90;;;;;;14971164;22;20864;-55
2021/06/24 12:08:22;;;;;;;7.25;3.80;;;21.80;97.50;;;;;;14992190;22;20051;-56
2021/06/24 12:14:21;;;;;;;8.63;3.85;;;21.70;97.50;;;;;;15002747;22;20023;-55
2021/06/24 12:20:26;;;;;;;6.32;3.35;;;21.60;95.20;;;;;;15002077;22;20113;-55
2021/06/24 12:32:18;;;;;;;6.10;3.00;;;22.00;94.30;;;;;;14970197;22;20365;-54
2021/06/24 12:38:07;;;;;;;9.65;3.30;;;22.50;91.50;;;;;;14980049;22;20149;-53
2021/06/24 12:44:01;;;;;;;3.85;2.85;;;22.30;90.10;;;;;;14970989;22;20118;-50
2021/06/24 12:49:48;;;;;;;6.75;3.13;;;22.10;92.00;;;;;;14969419;22;20412;-53
2021/06/24 12:55:40;;;;;;;6.45;3.20;;;21.70;91.10;;;;;;14968151;22;20026;-54
2021/06/24 13:01:36;;;;;;;6.07;3.10;;;21.50;91.20;;;;;;14969308;22;20362;-55
2021/06/24 13:07:26;;;;;;;5.30;2.80;;;21.70;90.30;;;;;;14971355;22;20030;-55
2021/06/24 13:13:30;;;;;;;4.03;2.70;;;22.20;90.20;;;;;;14982288;22;20019;-55
2021/06/24 13:19:24;;;;;;;7.68;3.08;;;22.10;86.40;;;;;;15011956;22;20081;-51
2021/06/24 13:25:20;;;;;;;5.57;2.80;;;22.10;89.50;;;;;;14996665;22;20339;-54
2021/06/24 13:31:07;;;;;;;6.53;3.10;;;22.10;87.50;;;;;;14970977;22;20076;-51
2021/06/24 13:37:13;;;;;;;8.63;3.20;;;22.00;87.50;;;;;;14963404;22;20029;-51
2021/06/24 13:43:02;;;;;;;7.95;2.80;;;21.90;88.20;;;;;;14982564;22;20023;-55
2021/06/24 13:55:38;;;;;;;6.15;2.72;;;21.90;86.70;;;;;;14997294;22;20349;-56
2021/06/24 14:01:27;;;;;;;4.53;2.80;;;22.30;83.30;;;;;;14959788;22;20078;-53
2021/06/24 14:07:13;;;;;;;7.60;2.72;;;22.20;85.40;;;;;;14992441;22;20114;-56
2021/06/24 14:13:02;;;;;;;3.00;2.70;;;22.00;83.80;;;;;;15004324;22;20118;-56
2021/06/24 14:18:49;;;;;;;6.78;2.50;;;21.90;82.60;;;;;;15005151;22;20069;-56
2021/06/24 14:24:36;;;;;;;5.05;2.75;;;21.90;84.30;;;;;;15003619;22;20532;-56
2021/06/24 14:30:25;;;;;;;6.30;3.28;;;21.90;83.50;;;;;;14884130;22;20324;-60
2021/06/24 14:36:13;;;;;;;5.47;2.50;;;21.90;82.10;;;;;;14903540;22;20027;-56
2021/06/24 14:42:00;;;;;;;9.32;2.45;;;21.90;81.00;;;;;;14902392;22;20034;-56
2021/06/24 14:47:48;;;;;;;3.80;2.33;;;21.90;79.30;;;;;;14905081;22;20034;-54
2021/06/24 14:53:35;;;;;;;5.70;2.20;;;21.90;80.20;;;;;;14870028;22;20024;-53
2021/06/24 14:59:23;;;;;;;2.97;2.03;;;22.20;78.40;;;;;;14902102;22;20027;-53
2021/06/24 15:05:12;;;;;;;5.35;2.20;;;22.80;79.10;;;;;;14884132;22;20055;-51
2021/06/24 15:11:22;;;;;;;4.25;2.13;;;22.90;75.70;;;;;;14899926;22;20035;-58
2021/06/24 15:17:10;;;;;;;3.03;1.70;;;22.50;76.30;;;;;;14882206;22;20026;-54
2021/06/24 15:22:58;;;;;;;3.80;1.92;;;22.50;77.70;;;;;;14898600;22;20060;-55
2021/06/24 15:28:51;;;;;;;3.45;1.83;;;22.10;78.10;;;;;;14857586;22;20106;-52
2021/06/24 15:34:39;;;;;;;3.53;1.42;;;22.00;72.70;;;;;;14984537;22;20508;-51
2021/06/24 15:40:28;;;;;;;4.40;1.27;;;22.70;63.90;;;;;;14985314;22;20511;-51
2021/06/24 15:46:22;;;;;;;2.78;1.25;;;24.50;52.60;;;;;;14997731;22;20149;-54
2021/06/24 15:52:11;;;;;;;4.57;1.60;;;26.80;51.30;;;;;;14994160;22;20025;-53
2021/06/24 15:58:01;;;;;;;1.48;1.35;;;28.50;47.80;;;;;;15017219;22;20015;-56
2021/06/24 16:03:48;;;;;;;1.58;1.20;;;29.50;43.60;;;;;;14965985;22;20037;-56
2021/06/24 16:09:35;;;;;;;1.85;1.48;;;29.70;41.70;;;;;;14981134;22;20353;-52
2021/06/24 16:15:23;;;;;;;3.83;1.50;;;30.50;42.10;;;;;;14987027;22;20408;-56
2021/06/24 16:21:11;;;;;;;2.72;1.98;;;31.30;43.60;;;;;;15027799;22;20094;-56
2021/06/24 16:26:58;;;;;;;5.50;2.08;;;31.70;42.60;;;;;;14997917;22;20023;-55
2021/06/24 16:32:53;;;;;;;3.63;1.92;;;32.20;42.10;;;;;;14983060;22;20098;-53
2021/06/24 16:38:40;;;;;;;5.22;1.90;;;32.20;42.60;;;;;;15001142;22;20022;-56
2021/06/24 16:44:28;;;;;;;3.38;2.38;;;33.10;42.30;;;;;;14973221;22;20031;-56
2021/06/24 16:50:31;;;;;;;4.10;2.30;;;33.50;41.50;;;;;;14954729;22;20034;-56
2021/06/24 16:56:19;;;;;;;3.45;2.60;;;33.40;40.50;;;;;;15001558;22;20078;-53
2021/06/24 17:02:07;;;;;;;3.83;2.17;;;33.60;40.30;;;;;;15001718;22;20029;-55
2021/06/24 17:07:55;;;;;;;3.28;2.40;;;35.00;38.40;;;;;;15001646;22;20019;-53
2021/06/24 17:13:42;;;;;;;2.78;2.38;;;35.70;36.70;;;;;;15005114;22;20023;-56
2021/06/24 17:19:29;;;;;;;5.50;2.40;;;35.80;37.00;;;;;;15006384;22;20539;-58
2021/06/24 17:25:18;;;;;;;6.78;2.80;;;36.30;35.80;;;;;;15002477;22;20106;-56
2021/06/24 17:31:06;;;;;;;3.78;2.65;;;36.30;35.10;;;;;;14976099;22;20338;-57
2021/06/24 17:36:53;;;;;;;4.28;3.25;;;36.30;34.80;;;;;;14979722;22;20049;-56
2021/06/24 17:42:43;;;;;;;5.50;3.10;;;36.60;34.70;;;;;;14977653;22;21647;-54
2021/06/24 17:48:30;;;;;;;5.55;3.20;;;36.80;35.00;;;;;;14977809;22;20396;-55
2021/06/24 17:54:19;;;;;;;5.88;3.60;;;37.50;34.50;;;;;;14980850;22;20106;-57
2021/06/24 18:00:11;;;;;;;8.05;4.22;;;37.50;33.50;;;;;;15006312;22;20027;-56
2021/06/24 18:05:58;;;;;;;6.53;4.70;;;36.50;35.10;;;;;;15004168;22;20020;-53
2021/06/24 18:11:45;;;;;;;7.50;4.65;;;35.70;36.60;;;;;;15004355;22;20084;-55
2021/06/24 18:17:34;;;;;;;7.53;5.03;;;35.00;36.30;;;;;;14988572;22;20050;-57
2021/06/24 18:23:21;;;;;;;7.80;4.82;;;35.00;36.00;;;;;;15004837;22;20023;-54
2021/06/24 18:29:08;;;;;;;7.38;4.93;;;34.30;38.10;;;;;;14981237;22;20106;-55
2021/06/24 18:34:56;;;;;;;6.80;4.82;;;33.50;39.40;;;;;;14976978;22;20062;-54
2021/06/24 18:40:44;;;;;;;7.55;5.07;;;33.70;38.80;;;;;;14976740;22;20027;-56
2021/06/24 18:46:31;;;;;;;6.75;5.60;;;33.90;39.40;;;;;;14977675;22;20172;-56
2021/06/24 18:52:20;;;;;;;7.97;5.43;;;33.40;38.80;;;;;;14975894;22;20093;-55
2021/06/24 18:58:07;;;;;;;12.70;5.88;;;33.00;39.90;;;;;;14975813;22;20503;-55
2021/06/24 19:03:54;;;;;;;11.95;6.47;;;32.80;41.50;;;;;;14977456;22;20026;-55
2021/06/24 19:09:43;;;;;;;6.82;5.47;;;32.40;42.00;;;;;;14976123;22;20117;-56
2021/06/24 19:15:30;;;;;;;9.38;5.60;;;31.70;44.30;;;;;;14976479;22;20023;-57
2021/06/24 19:21:17;;;;;;;10.07;5.35;;;30.80;45.70;;;;;;14961878;22;20357;-56
2021/06/24 19:27:06;;;;;;;11.15;5.55;;;29.00;48.90;;;;;;14985996;22;20023;-57
2021/06/24 19:32:53;;;;;;;12.07;5.85;;;27.30;52.40;;;;;;14958103;22;20106;-55
2021/06/24 19:38:40;;;;;;;10.88;6.10;;;26.10;54.40;;;;;;15003072;22;20037;-54
2021/06/24 19:44:29;;;;;;;8.70;5.90;;;25.20;56.70;;;;;;15003515;22;20093;-54
2021/06/24 19:50:18;;;;;;;8.68;6.35;;;24.50;58.20;;;;;;14960476;22;20043;-52
2021/06/24 19:56:06;;;;;;;7.55;5.68;;;24.00;59.60;;;;;;15000015;22;20124;-54
2021/06/24 20:01:54;;;;;;;7.82;6.35;;;23.50;61.70;;;;;;15003103;22;20080;-55
2021/06/24 20:07:41;;;;;;;10.45;6.10;;;23.20;62.20;;;;;;15002666;22;20100;-56
2021/06/24 20:13:28;;;;;;;10.88;6.50;;;23.00;63.60;;;;;;15002788;22;20116;-55
2021/06/24 20:19:16;;;;;;;9.00;6.20;;;22.90;64.20;;;;;;15002675;22;20102;-55
2021/06/24 20:25:04;;;;;;;11.55;6.78;;;22.70;64.60;;;;;;14992445;22;20528;-56
2021/06/24 20:30:52;;;;;;;9.80;6.93;;;22.60;65.20;;;;;;14975985;22;20464;-57
2021/06/24 20:36:40;;;;;;;9.98;7.35;;;22.40;65.90;;;;;;14979102;22;20027;-54
2021/06/24 20:42:28;;;;;;;12.63;7.70;;;22.30;66.50;;;;;;15001456;22;20465;-58
2021/06/24 20:48:15;;;;;;;14.57;8.25;;;22.20;66.80;;;;;;15002962;22;20026;-56
2021/06/24 20:54:03;;;;;;;12.55;7.55;;;22.10;67.80;;;;;;15000314;22;20110;-53
2021/06/24 20:59:50;;;;;;;12.38;7.28;;;21.90;68.90;;;;;;14958259;22;20051;-54
2021/06/24 21:05:38;;;;;;;12.75;8.20;;;21.80;69.80;;;;;;15000946;22;20546;-55
2021/06/24 21:11:27;;;;;;;14.65;8.20;;;21.70;69.90;;;;;;14958162;22;20023;-55
2021/06/24 21:17:15;;;;;;;13.35;8.10;;;21.60;70.70;;;;;;14999359;22;20019;-51
2021/06/24 21:23:02;;;;;;;12.15;8.38;;;21.40;71.80;;;;;;14962747;22;20473;-55
2021/06/24 21:28:50;;;;;;;15.15;8.32;;;21.40;72.00;;;;;;14974457;22;20034;-56
2021/06/24 21:34:38;;;;;;;13.68;8.32;;;21.30;73.50;;;;;;14875102;22;20023;-56
2021/06/24 21:40:25;;;;;;;19.65;8.88;;;21.10;73.50;;;;;;14966429;22;20932;-56
2021/06/24 21:46:14;;;;;;;12.65;8.10;;;21.00;73.90;;;;;;14968667;22;20546;-54
2021/06/24 21:52:01;;;;;;;13.40;8.27;;;21.00;75.00;;;;;;14973212;22;20023;-53
2021/06/24 21:57:48;;;;;;;10.82;8.20;;;20.90;74.30;;;;;;15000945;22;20015;-54
2021/06/24 22:03:36;;;;;;;12.73;8.52;;;20.90;74.30;;;;;;15006045;22;20118;-53
2021/06/24 22:09:23;;;;;;;14.90;8.95;;;20.80;74.60;;;;;;15005320;22;20098;-54
2021/06/24 22:15:11;;;;;;;11.60;8.63;;;20.70;75.50;;;;;;15008154;22;20094;-55
2021/06/24 22:21:01;;;;;;;18.05;8.77;;;20.70;76.30;;;;;;14999091;22;20095;-51
2021/06/24 22:26:48;;;;;;;14.48;9.25;;;20.60;75.90;;;;;;14994118;22;20437;-55
2021/06/24 22:32:36;;;;;;;14.27;9.45;;;20.50;75.80;;;;;;14946802;22;20027;-54
2021/06/24 22:38:24;;;;;;;20.23;9.95;;;20.50;77.00;;;;;;14973509;22;20068;-52
2021/06/24 22:44:11;;;;;;;15.70;9.88;;;20.30;78.20;;;;;;14974305;22;20034;-55
2021/06/24 22:49:57;;;;;;;16.13;9.65;;;20.30;79.20;;;;;;14937024;22;20051;-51
2021/06/24 22:55:52;;;;;;;16.15;10.05;;;20.30;79.10;;;;;;14969414;22;20489;-52
2021/06/24 23:01:39;;;;;;;18.83;9.18;;;20.30;79.60;;;;;;14974662;22;20084;-51
2021/06/24 23:07:26;;;;;;;12.52;9.20;;;20.20;79.00;;;;;;14974230;22;20023;-52
2021/06/24 23:13:15;;;;;;;14.57;9.40;;;20.00;79.10;;;;;;14981503;22;20487;-56
2021/06/24 23:19:02;;;;;;;16.80;9.50;;;20.10;79.80;;;;;;15004423;22;20122;-52
2021/06/24 23:24:49;;;;;;;15.50;9.80;;;20.10;80.00;;;;;;15000711;22;20073;-53
2021/06/24 23:30:37;;;;;;;17.50;9.52;;;20.10;80.40;;;;;;14987021;22;20043;-56
2021/06/24 23:36:24;;;;;;;13.68;9.52;;;20.00;80.00;;;;;;15002992;22;20102;-53
2021/06/24 23:42:12;;;;;;;12.93;9.75;;;19.80;80.40;;;;;;14946671;22;20094;-53
2021/06/24 23:48:02;;;;;;;16.48;9.82;;;19.70;81.20;;;;;;15002975;22;20027;-52
2021/06/24 23:53:49;;;;;;;19.08;9.68;;;19.70;81.80;;;;;;14960808;22;20031;-52
2021/06/24 23:59:36;;;;;;;19.02;9.27;;;19.80;81.70;;;;;;15003234;22;20110;-54
